sensor_id;sensor_type;location;lat;lon;timestamp;temperature;humidity
36292;DHT22;22327;51.208;6.418;2022-08-19T00:01:17;22.30;90.10
36292;DHT22;22327;51.208;6.418;2022-08-19T00:03:42;22.30;90.40
36292;DHT22;22327;51.208;6.418;2022-08-19T00:06:08;22.30;90.60
36292;DHT22;22327;51.208;6.418;2022-08-19T00:08:34;22.30;90.60
36292;DHT22;22327;51.208;6.418;2022-08-19T00:11:00;22.30;90.60
36292;DHT22;22327;51.208;6.418;2022-08-19T00:13:25;22.30;90.50
36292;DHT22;22327;51.208;6.418;2022-08-19T00:15:52;22.20;90.60
36292;DHT22;22327;51.208;6.418;2022-08-19T00:18:17;22.20;90.60
36292;DHT22;22327;51.208;6.418;2022-08-19T00:20:43;22.20;90.60
36292;DHT22;22327;51.208;6.418;2022-08-19T00:23:08;22.20;90.60
36292;DHT22;22327;51.208;6.418;2022-08-19T00:25:34;22.10;90.70
36292;DHT22;22327;51.208;6.418;2022-08-19T00:28:00;22.10;90.70
36292;DHT22;22327;51.208;6.418;2022-08-19T00:30:26;22.00;90.80
36292;DHT22;22327;51.208;6.418;2022-08-19T00:32:54;22.10;90.80
36292;DHT22;22327;51.208;6.418;2022-08-19T00:35:20;22.00;90.80
36292;DHT22;22327;51.208;6.418;2022-08-19T00:37:48;21.90;90.80
36292;DHT22;22327;51.208;6.418;2022-08-19T00:40:15;21.90;90.90
36292;DHT22;22327;51.208;6.418;2022-08-19T00:42:41;21.90;91.10
36292;DHT22;22327;51.208;6.418;2022-08-19T00:45:14;21.80;91.20
36292;DHT22;22327;51.208;6.418;2022-08-19T00:50:17;21.70;91.40
36292;DHT22;22327;51.208;6.418;2022-08-19T00:52:46;21.70;91.50
36292;DHT22;22327;51.208;6.418;2022-08-19T00:55:17;21.70;91.50
36292;DHT22;22327;51.208;6.418;2022-08-19T00:57:47;21.60;91.60
36292;DHT22;22327;51.208;6.418;2022-08-19T01:00:16;21.60;91.70
36292;DHT22;22327;51.208;6.418;2022-08-19T01:02:42;21.60;91.80
36292;DHT22;22327;51.208;6.418;2022-08-19T01:05:11;21.50;91.80
36292;DHT22;22327;51.208;6.418;2022-08-19T01:07:39;21.40;91.80
36292;DHT22;22327;51.208;6.418;2022-08-19T01:10:07;21.50;92.00
36292;DHT22;22327;51.208;6.418;2022-08-19T01:12:34;21.40;92.20
36292;DHT22;22327;51.208;6.418;2022-08-19T01:15:00;21.40;92.20
36292;DHT22;22327;51.208;6.418;2022-08-19T01:17:26;21.40;92.20
36292;DHT22;22327;51.208;6.418;2022-08-19T01:19:52;21.40;92.30
36292;DHT22;22327;51.208;6.418;2022-08-19T01:22:26;21.30;92.20
36292;DHT22;22327;51.208;6.418;2022-08-19T01:24:53;21.40;92.50
36292;DHT22;22327;51.208;6.418;2022-08-19T01:27:18;21.30;92.50
36292;DHT22;22327;51.208;6.418;2022-08-19T01:29:44;21.30;92.60
36292;DHT22;22327;51.208;6.418;2022-08-19T01:32:13;21.30;92.50
36292;DHT22;22327;51.208;6.418;2022-08-19T01:34:39;21.40;92.60
36292;DHT22;22327;51.208;6.418;2022-08-19T01:37:09;21.30;92.50
36292;DHT22;22327;51.208;6.418;2022-08-19T01:39:38;21.30;92.50
36292;DHT22;22327;51.208;6.418;2022-08-19T01:42:05;21.30;92.60
36292;DHT22;22327;51.208;6.418;2022-08-19T01:44:32;21.20;92.40
36292;DHT22;22327;51.208;6.418;2022-08-19T01:46:58;21.20;92.50
36292;DHT22;22327;51.208;6.418;2022-08-19T01:49:25;21.20;92.70
36292;DHT22;22327;51.208;6.418;2022-08-19T01:51:52;21.20;92.90
36292;DHT22;22327;51.208;6.418;2022-08-19T01:54:22;21.20;92.90
36292;DHT22;22327;51.208;6.418;2022-08-19T01:56:48;21.20;93.10
36292;DHT22;22327;51.208;6.418;2022-08-19T01:59:18;21.20;93.40
36292;DHT22;22327;51.208;6.418;2022-08-19T02:01:45;21.30;93.60
36292;DHT22;22327;51.208;6.418;2022-08-19T02:04:10;21.40;93.50
36292;DHT22;22327;51.208;6.418;2022-08-19T02:06:37;21.50;93.40
36292;DHT22;22327;51.208;6.418;2022-08-19T02:09:04;21.70;93.40
36292;DHT22;22327;51.208;6.418;2022-08-19T02:11:33;21.80;93.40
36292;DHT22;22327;51.208;6.418;2022-08-19T02:14:00;22.00;92.80
36292;DHT22;22327;51.208;6.418;2022-08-19T02:16:28;22.10;92.50
36292;DHT22;22327;51.208;6.418;2022-08-19T02:18:53;22.10;92.50
36292;DHT22;22327;51.208;6.418;2022-08-19T02:21:22;22.20;92.30
36292;DHT22;22327;51.208;6.418;2022-08-19T02:23:48;22.20;92.20
36292;DHT22;22327;51.208;6.418;2022-08-19T02:26:14;22.30;92.20
36292;DHT22;22327;51.208;6.418;2022-08-19T02:28:41;22.30;92.30
36292;DHT22;22327;51.208;6.418;2022-08-19T02:31:19;22.40;92.00
36292;DHT22;22327;51.208;6.418;2022-08-19T02:33:45;22.50;91.70
36292;DHT22;22327;51.208;6.418;2022-08-19T02:36:13;22.40;91.40
36292;DHT22;22327;51.208;6.418;2022-08-19T02:38:39;22.40;91.60
36292;DHT22;22327;51.208;6.418;2022-08-19T02:41:13;22.40;91.70
36292;DHT22;22327;51.208;6.418;2022-08-19T02:43:38;22.40;91.60
36292;DHT22;22327;51.208;6.418;2022-08-19T02:46:17;22.30;91.60
36292;DHT22;22327;51.208;6.418;2022-08-19T02:48:47;22.30;92.00
36292;DHT22;22327;51.208;6.418;2022-08-19T02:51:19;22.30;91.70
36292;DHT22;22327;51.208;6.418;2022-08-19T02:53:44;22.30;91.50
36292;DHT22;22327;51.208;6.418;2022-08-19T02:56:10;22.30;91.50
36292;DHT22;22327;51.208;6.418;2022-08-19T02:58:36;22.10;91.60
36292;DHT22;22327;51.208;6.418;2022-08-19T03:01:01;22.10;91.80
36292;DHT22;22327;51.208;6.418;2022-08-19T03:03:27;22.10;92.10
36292;DHT22;22327;51.208;6.418;2022-08-19T03:06:06;22.00;92.10
36292;DHT22;22327;51.208;6.418;2022-08-19T03:08:32;22.10;92.10
36292;DHT22;22327;51.208;6.418;2022-08-19T03:10:58;22.10;92.20
36292;DHT22;22327;51.208;6.418;2022-08-19T03:13:23;22.10;92.10
36292;DHT22;22327;51.208;6.418;2022-08-19T03:15:49;22.10;92.00
36292;DHT22;22327;51.208;6.418;2022-08-19T03:18:15;22.10;92.10
36292;DHT22;22327;51.208;6.418;2022-08-19T03:20:43;22.10;92.00
36292;DHT22;22327;51.208;6.418;2022-08-19T03:23:11;22.20;91.80
36292;DHT22;22327;51.208;6.418;2022-08-19T03:25:42;22.20;91.90
36292;DHT22;22327;51.208;6.418;2022-08-19T03:28:13;22.20;91.60
36292;DHT22;22327;51.208;6.418;2022-08-19T03:30:40;22.10;91.70
36292;DHT22;22327;51.208;6.418;2022-08-19T03:33:07;22.00;91.90
36292;DHT22;22327;51.208;6.418;2022-08-19T03:35:33;21.90;92.10
36292;DHT22;22327;51.208;6.418;2022-08-19T03:37:59;21.90;92.30
36292;DHT22;22327;51.208;6.418;2022-08-19T03:40:25;21.90;92.30
36292;DHT22;22327;51.208;6.418;2022-08-19T03:42:50;21.80;92.40
36292;DHT22;22327;51.208;6.418;2022-08-19T03:45:16;21.90;92.60
36292;DHT22;22327;51.208;6.418;2022-08-19T03:47:42;21.80;92.90
36292;DHT22;22327;51.208;6.418;2022-08-19T03:50:07;21.90;92.70
36292;DHT22;22327;51.208;6.418;2022-08-19T03:52:34;21.90;92.60
36292;DHT22;22327;51.208;6.418;2022-08-19T03:55:01;21.80;92.50
36292;DHT22;22327;51.208;6.418;2022-08-19T03:57:27;21.80;92.60
36292;DHT22;22327;51.208;6.418;2022-08-19T03:59:53;21.70;92.90
36292;DHT22;22327;51.208;6.418;2022-08-19T04:02:18;21.80;93.40
36292;DHT22;22327;51.208;6.418;2022-08-19T04:04:44;21.80;93.10
36292;DHT22;22327;51.208;6.418;2022-08-19T04:07:12;21.80;93.20
36292;DHT22;22327;51.208;6.418;2022-08-19T04:09:41;21.80;93.20
36292;DHT22;22327;51.208;6.418;2022-08-19T04:12:07;21.80;93.50
36292;DHT22;22327;51.208;6.418;2022-08-19T04:14:34;21.80;93.50
36292;DHT22;22327;51.208;6.418;2022-08-19T04:17:01;21.90;93.50
36292;DHT22;22327;51.208;6.418;2022-08-19T04:19:30;21.90;93.50
36292;DHT22;22327;51.208;6.418;2022-08-19T04:21:56;21.90;93.40
36292;DHT22;22327;51.208;6.418;2022-08-19T04:24:22;21.90;93.30
36292;DHT22;22327;51.208;6.418;2022-08-19T04:26:48;21.90;93.40
36292;DHT22;22327;51.208;6.418;2022-08-19T04:29:18;21.90;93.40
36292;DHT22;22327;51.208;6.418;2022-08-19T04:31:45;21.90;93.50
36292;DHT22;22327;51.208;6.418;2022-08-19T04:34:13;21.90;93.70
36292;DHT22;22327;51.208;6.418;2022-08-19T04:36:41;22.00;93.80
36292;DHT22;22327;51.208;6.418;2022-08-19T04:39:12;22.00;93.70
36292;DHT22;22327;51.208;6.418;2022-08-19T04:41:38;22.10;93.70
36292;DHT22;22327;51.208;6.418;2022-08-19T04:44:23;22.10;93.60
36292;DHT22;22327;51.208;6.418;2022-08-19T04:46:49;22.10;93.60
36292;DHT22;22327;51.208;6.418;2022-08-19T04:49:20;22.20;93.60
36292;DHT22;22327;51.208;6.418;2022-08-19T04:51:47;22.20;93.60
36292;DHT22;22327;51.208;6.418;2022-08-19T04:54:15;22.30;93.60
36292;DHT22;22327;51.208;6.418;2022-08-19T04:56:41;22.30;93.50
36292;DHT22;22327;51.208;6.418;2022-08-19T04:59:07;22.40;93.40
36292;DHT22;22327;51.208;6.418;2022-08-19T05:01:34;22.40;93.40
36292;DHT22;22327;51.208;6.418;2022-08-19T05:04:02;22.40;93.40
36292;DHT22;22327;51.208;6.418;2022-08-19T05:06:30;22.60;93.20
36292;DHT22;22327;51.208;6.418;2022-08-19T05:08:58;22.70;93.20
36292;DHT22;22327;51.208;6.418;2022-08-19T05:11:26;22.80;93.00
36292;DHT22;22327;51.208;6.418;2022-08-19T05:13:53;23.00;92.80
36292;DHT22;22327;51.208;6.418;2022-08-19T05:16:21;23.10;92.70
36292;DHT22;22327;51.208;6.418;2022-08-19T05:18:47;23.20;92.60
36292;DHT22;22327;51.208;6.418;2022-08-19T05:21:33;23.40;92.40
36292;DHT22;22327;51.208;6.418;2022-08-19T05:24:19;23.60;91.70
36292;DHT22;22327;51.208;6.418;2022-08-19T05:26:48;23.90;91.10
36292;DHT22;22327;51.208;6.418;2022-08-19T05:29:16;24.20;90.60
36292;DHT22;22327;51.208;6.418;2022-08-19T05:31:42;24.50;90.40
36292;DHT22;22327;51.208;6.418;2022-08-19T05:34:08;24.70;90.00
36292;DHT22;22327;51.208;6.418;2022-08-19T05:36:42;24.90;88.40
36292;DHT22;22327;51.208;6.418;2022-08-19T05:39:12;25.10;87.80
36292;DHT22;22327;51.208;6.418;2022-08-19T05:41:45;25.30;86.60
36292;DHT22;22327;51.208;6.418;2022-08-19T05:44:11;25.50;85.10
36292;DHT22;22327;51.208;6.418;2022-08-19T05:46:38;25.70;85.40
36292;DHT22;22327;51.208;6.418;2022-08-19T05:49:06;26.00;84.30
36292;DHT22;22327;51.208;6.418;2022-08-19T05:51:33;26.20;82.80
36292;DHT22;22327;51.208;6.418;2022-08-19T05:54:00;26.30;81.80
36292;DHT22;22327;51.208;6.418;2022-08-19T05:56:25;26.40;82.30
36292;DHT22;22327;51.208;6.418;2022-08-19T05:58:51;26.60;80.60
36292;DHT22;22327;51.208;6.418;2022-08-19T06:01:18;26.80;79.80
36292;DHT22;22327;51.208;6.418;2022-08-19T06:03:44;26.90;78.40
36292;DHT22;22327;51.208;6.418;2022-08-19T06:06:14;27.00;78.80
36292;DHT22;22327;51.208;6.418;2022-08-19T06:08:41;27.20;79.20
36292;DHT22;22327;51.208;6.418;2022-08-19T06:11:18;27.50;76.50
36292;DHT22;22327;51.208;6.418;2022-08-19T06:13:45;27.70;75.60
36292;DHT22;22327;51.208;6.418;2022-08-19T06:16:14;27.70;74.60
36292;DHT22;22327;51.208;6.418;2022-08-19T06:18:46;27.70;74.70
36292;DHT22;22327;51.208;6.418;2022-08-19T06:21:11;27.80;74.70
36292;DHT22;22327;51.208;6.418;2022-08-19T06:23:37;27.80;74.10
36292;DHT22;22327;51.208;6.418;2022-08-19T06:26:04;27.90;74.20
36292;DHT22;22327;51.208;6.418;2022-08-19T06:28:29;28.10;74.20
36292;DHT22;22327;51.208;6.418;2022-08-19T06:30:55;28.40;73.10
36292;DHT22;22327;51.208;6.418;2022-08-19T06:33:20;28.40;70.60
36292;DHT22;22327;51.208;6.418;2022-08-19T06:35:46;28.20;71.60
36292;DHT22;22327;51.208;6.418;2022-08-19T06:38:12;28.10;71.50
36292;DHT22;22327;51.208;6.418;2022-08-19T06:40:37;27.80;72.20
36292;DHT22;22327;51.208;6.418;2022-08-19T06:43:03;27.80;73.20
36292;DHT22;22327;51.208;6.418;2022-08-19T06:45:29;28.00;73.30
36292;DHT22;22327;51.208;6.418;2022-08-19T06:47:55;28.50;71.30
36292;DHT22;22327;51.208;6.418;2022-08-19T06:50:22;29.00;70.40
36292;DHT22;22327;51.208;6.418;2022-08-19T06:52:48;29.30;69.00
36292;DHT22;22327;51.208;6.418;2022-08-19T06:55:14;29.50;67.10
36292;DHT22;22327;51.208;6.418;2022-08-19T06:57:41;29.50;66.80
36292;DHT22;22327;51.208;6.418;2022-08-19T07:00:08;29.40;66.40
36292;DHT22;22327;51.208;6.418;2022-08-19T07:02:38;29.30;66.80
36292;DHT22;22327;51.208;6.418;2022-08-19T07:05:04;29.00;67.10
36292;DHT22;22327;51.208;6.418;2022-08-19T07:07:30;28.80;67.70
36292;DHT22;22327;51.208;6.418;2022-08-19T07:09:56;28.60;69.10
36292;DHT22;22327;51.208;6.418;2022-08-19T07:12:22;28.40;69.50
36292;DHT22;22327;51.208;6.418;2022-08-19T07:14:47;28.60;69.60
36292;DHT22;22327;51.208;6.418;2022-08-19T07:17:14;28.90;68.60
36292;DHT22;22327;51.208;6.418;2022-08-19T07:19:41;29.00;67.70
36292;DHT22;22327;51.208;6.418;2022-08-19T07:22:08;29.00;66.70
36292;DHT22;22327;51.208;6.418;2022-08-19T07:24:35;28.80;66.80
36292;DHT22;22327;51.208;6.418;2022-08-19T07:27:02;28.60;67.60
36292;DHT22;22327;51.208;6.418;2022-08-19T07:29:31;28.70;67.90
36292;DHT22;22327;51.208;6.418;2022-08-19T07:32:00;28.90;67.00
36292;DHT22;22327;51.208;6.418;2022-08-19T07:34:27;29.00;65.70
36292;DHT22;22327;51.208;6.418;2022-08-19T07:36:54;28.90;65.30
36292;DHT22;22327;51.208;6.418;2022-08-19T07:39:23;28.60;65.80
36292;DHT22;22327;51.208;6.418;2022-08-19T07:41:49;28.50;66.30
36292;DHT22;22327;51.208;6.418;2022-08-19T07:44:17;28.80;66.50
36292;DHT22;22327;51.208;6.418;2022-08-19T07:46:45;29.40;64.80
36292;DHT22;22327;51.208;6.418;2022-08-19T07:49:12;30.20;61.50
36292;DHT22;22327;51.208;6.418;2022-08-19T07:51:43;31.10;59.30
36292;DHT22;22327;51.208;6.418;2022-08-19T07:54:09;31.90;57.00
36292;DHT22;22327;51.208;6.418;2022-08-19T07:56:35;32.30;54.70
36292;DHT22;22327;51.208;6.418;2022-08-19T07:59:00;32.40;53.70
36292;DHT22;22327;51.208;6.418;2022-08-19T08:01:27;32.40;54.40
36292;DHT22;22327;51.208;6.418;2022-08-19T08:03:54;32.60;52.80
36292;DHT22;22327;51.208;6.418;2022-08-19T08:06:38;32.60;52.80
36292;DHT22;22327;51.208;6.418;2022-08-19T08:09:26;32.80;52.20
36292;DHT22;22327;51.208;6.418;2022-08-19T08:12:17;33.40;51.60
36292;DHT22;22327;51.208;6.418;2022-08-19T08:14:49;33.90;49.20
36292;DHT22;22327;51.208;6.418;2022-08-19T08:17:17;34.10;47.90
36292;DHT22;22327;51.208;6.418;2022-08-19T08:19:44;33.60;47.70
36292;DHT22;22327;51.208;6.418;2022-08-19T08:22:11;33.60;48.90
36292;DHT22;22327;51.208;6.418;2022-08-19T08:25:08;34.10;47.90
36292;DHT22;22327;51.208;6.418;2022-08-19T08:27:39;34.80;46.60
36292;DHT22;22327;51.208;6.418;2022-08-19T08:30:10;35.10;45.40
36292;DHT22;22327;51.208;6.418;2022-08-19T08:32:37;35.10;44.60
36292;DHT22;22327;51.208;6.418;2022-08-19T08:35:10;34.80;44.30
36292;DHT22;22327;51.208;6.418;2022-08-19T08:37:35;34.60;45.10
36292;DHT22;22327;51.208;6.418;2022-08-19T08:40:06;34.60;45.00
36292;DHT22;22327;51.208;6.418;2022-08-19T08:42:40;34.90;45.90
36292;DHT22;22327;51.208;6.418;2022-08-19T08:45:13;35.40;43.60
36292;DHT22;22327;51.208;6.418;2022-08-19T08:47:44;35.70;42.90
36292;DHT22;22327;51.208;6.418;2022-08-19T08:52:44;36.40;41.80
36292;DHT22;22327;51.208;6.418;2022-08-19T08:55:17;36.00;41.00
36292;DHT22;22327;51.208;6.418;2022-08-19T09:02:47;35.20;41.40
36292;DHT22;22327;51.208;6.418;2022-08-19T09:05:13;34.60;42.00
36292;DHT22;22327;51.208;6.418;2022-08-19T09:10:40;33.50;43.70
36292;DHT22;22327;51.208;6.418;2022-08-19T09:15:40;32.80;45.70
36292;DHT22;22327;51.208;6.418;2022-08-19T09:18:08;32.80;44.90
36292;DHT22;22327;51.208;6.418;2022-08-19T09:20:34;32.50;45.40
36292;DHT22;22327;51.208;6.418;2022-08-19T09:22:59;32.10;46.80
36292;DHT22;22327;51.208;6.418;2022-08-19T09:25:25;32.00;47.10
36292;DHT22;22327;51.208;6.418;2022-08-19T09:27:52;31.90;46.90
36292;DHT22;22327;51.208;6.418;2022-08-19T09:30:27;32.00;47.20
36292;DHT22;22327;51.208;6.418;2022-08-19T09:32:54;32.10;46.50
36292;DHT22;22327;51.208;6.418;2022-08-19T09:35:22;32.20;46.40
36292;DHT22;22327;51.208;6.418;2022-08-19T09:37:49;32.60;45.90
36292;DHT22;22327;51.208;6.418;2022-08-19T09:40:16;33.00;45.20
36292;DHT22;22327;51.208;6.418;2022-08-19T09:42:43;33.40;44.70
36292;DHT22;22327;51.208;6.418;2022-08-19T09:45:11;33.80;44.10
36292;DHT22;22327;51.208;6.418;2022-08-19T09:47:37;34.30;44.00
36292;DHT22;22327;51.208;6.418;2022-08-19T09:50:05;34.70;43.00
36292;DHT22;22327;51.208;6.418;2022-08-19T09:52:32;35.00;42.70
36292;DHT22;22327;51.208;6.418;2022-08-19T09:54:58;35.10;41.80
36292;DHT22;22327;51.208;6.418;2022-08-19T09:57:24;35.00;42.50
36292;DHT22;22327;51.208;6.418;2022-08-19T09:59:49;34.90;42.50
36292;DHT22;22327;51.208;6.418;2022-08-19T10:02:15;34.40;42.80
36292;DHT22;22327;51.208;6.418;2022-08-19T10:04:40;33.90;43.50
36292;DHT22;22327;51.208;6.418;2022-08-19T10:07:25;33.60;44.60
36292;DHT22;22327;51.208;6.418;2022-08-19T10:09:50;33.30;45.20
36292;DHT22;22327;51.208;6.418;2022-08-19T10:12:16;33.10;45.50
36292;DHT22;22327;51.208;6.418;2022-08-19T10:14:42;32.80;45.60
36292;DHT22;22327;51.208;6.418;2022-08-19T10:17:07;32.30;46.00
36292;DHT22;22327;51.208;6.418;2022-08-19T10:19:33;31.80;46.90
36292;DHT22;22327;51.208;6.418;2022-08-19T10:22:07;31.40;47.90
36292;DHT22;22327;51.208;6.418;2022-08-19T10:24:34;31.10;48.80
36292;DHT22;22327;51.208;6.418;2022-08-19T10:27:00;30.80;49.70
36292;DHT22;22327;51.208;6.418;2022-08-19T10:29:29;30.60;49.80
36292;DHT22;22327;51.208;6.418;2022-08-19T10:31:54;30.50;50.60
36292;DHT22;22327;51.208;6.418;2022-08-19T10:34:21;30.40;51.20
36292;DHT22;22327;51.208;6.418;2022-08-19T10:36:46;30.30;50.90
36292;DHT22;22327;51.208;6.418;2022-08-19T10:39:12;30.40;51.10
36292;DHT22;22327;51.208;6.418;2022-08-19T10:41:39;30.40;51.30
36292;DHT22;22327;51.208;6.418;2022-08-19T10:44:08;30.40;51.00
36292;DHT22;22327;51.208;6.418;2022-08-19T10:46:37;30.40;50.90
36292;DHT22;22327;51.208;6.418;2022-08-19T10:49:05;30.30;51.60
36292;DHT22;22327;51.208;6.418;2022-08-19T10:51:31;30.20;50.50
36292;DHT22;22327;51.208;6.418;2022-08-19T10:54:16;30.00;50.10
36292;DHT22;22327;51.208;6.418;2022-08-19T10:56:42;29.90;50.90
36292;DHT22;22327;51.208;6.418;2022-08-19T10:59:23;30.00;51.20
36292;DHT22;22327;51.208;6.418;2022-08-19T11:01:50;30.00;51.20
36292;DHT22;22327;51.208;6.418;2022-08-19T11:04:16;29.90;50.70
36292;DHT22;22327;51.208;6.418;2022-08-19T11:06:48;29.80;50.60
36292;DHT22;22327;51.208;6.418;2022-08-19T11:09:16;29.70;50.00
36292;DHT22;22327;51.208;6.418;2022-08-19T11:11:42;29.70;50.80
36292;DHT22;22327;51.208;6.418;2022-08-19T11:14:14;29.60;51.60
36292;DHT22;22327;51.208;6.418;2022-08-19T11:16:41;29.60;51.80
36292;DHT22;22327;51.208;6.418;2022-08-19T11:19:09;29.50;52.10
36292;DHT22;22327;51.208;6.418;2022-08-19T11:21:43;29.60;51.60
36292;DHT22;22327;51.208;6.418;2022-08-19T11:24:20;29.50;51.10
36292;DHT22;22327;51.208;6.418;2022-08-19T11:26:48;29.40;51.50
36292;DHT22;22327;51.208;6.418;2022-08-19T11:29:14;29.50;50.90
36292;DHT22;22327;51.208;6.418;2022-08-19T11:31:43;29.50;50.20
36292;DHT22;22327;51.208;6.418;2022-08-19T11:34:13;29.50;50.20
36292;DHT22;22327;51.208;6.418;2022-08-19T11:36:41;29.60;50.60
36292;DHT22;22327;51.208;6.418;2022-08-19T11:39:09;29.60;51.20
36292;DHT22;22327;51.208;6.418;2022-08-19T11:41:35;29.70;51.10
36292;DHT22;22327;51.208;6.418;2022-08-19T11:44:02;29.60;50.60
36292;DHT22;22327;51.208;6.418;2022-08-19T11:46:28;29.50;50.20
36292;DHT22;22327;51.208;6.418;2022-08-19T11:48:58;29.30;50.20
36292;DHT22;22327;51.208;6.418;2022-08-19T11:51:27;29.30;49.80
36292;DHT22;22327;51.208;6.418;2022-08-19T11:53:53;29.30;50.00
36292;DHT22;22327;51.208;6.418;2022-08-19T11:56:20;29.30;49.70
36292;DHT22;22327;51.208;6.418;2022-08-19T11:58:46;29.20;49.50
36292;DHT22;22327;51.208;6.418;2022-08-19T12:01:14;29.10;49.60
36292;DHT22;22327;51.208;6.418;2022-08-19T12:03:44;29.10;49.20
36292;DHT22;22327;51.208;6.418;2022-08-19T12:06:14;29.10;49.70
36292;DHT22;22327;51.208;6.418;2022-08-19T12:08:41;29.10;50.50
36292;DHT22;22327;51.208;6.418;2022-08-19T12:11:09;29.00;50.90
36292;DHT22;22327;51.208;6.418;2022-08-19T12:13:37;29.00;50.50
36292;DHT22;22327;51.208;6.418;2022-08-19T12:16:09;28.90;51.00
36292;DHT22;22327;51.208;6.418;2022-08-19T12:18:36;28.80;50.80
36292;DHT22;22327;51.208;6.418;2022-08-19T12:21:02;28.90;50.50
36292;DHT22;22327;51.208;6.418;2022-08-19T12:23:29;28.90;50.30
36292;DHT22;22327;51.208;6.418;2022-08-19T12:25:54;28.90;49.50
36292;DHT22;22327;51.208;6.418;2022-08-19T12:28:24;28.80;48.30
36292;DHT22;22327;51.208;6.418;2022-08-19T12:30:50;28.80;48.90
36292;DHT22;22327;51.208;6.418;2022-08-19T12:33:17;28.90;50.30
36292;DHT22;22327;51.208;6.418;2022-08-19T12:35:45;29.00;50.40
36292;DHT22;22327;51.208;6.418;2022-08-19T12:38:12;29.20;50.20
36292;DHT22;22327;51.208;6.418;2022-08-19T12:40:38;29.20;50.00
36292;DHT22;22327;51.208;6.418;2022-08-19T12:43:05;29.30;49.40
36292;DHT22;22327;51.208;6.418;2022-08-19T12:45:31;29.30;49.40
36292;DHT22;22327;51.208;6.418;2022-08-19T12:47:57;29.20;48.70
36292;DHT22;22327;51.208;6.418;2022-08-19T12:50:23;29.20;48.50
36292;DHT22;22327;51.208;6.418;2022-08-19T12:52:49;29.10;48.30
36292;DHT22;22327;51.208;6.418;2022-08-19T12:55:14;29.10;48.00
36292;DHT22;22327;51.208;6.418;2022-08-19T12:57:40;29.10;48.20
36292;DHT22;22327;51.208;6.418;2022-08-19T13:00:17;29.10;48.00
36292;DHT22;22327;51.208;6.418;2022-08-19T13:02:45;29.10;47.60
36292;DHT22;22327;51.208;6.418;2022-08-19T13:05:14;29.10;47.40
36292;DHT22;22327;51.208;6.418;2022-08-19T13:07:42;29.20;47.30
36292;DHT22;22327;51.208;6.418;2022-08-19T13:10:11;29.10;47.00
36292;DHT22;22327;51.208;6.418;2022-08-19T13:12:38;29.10;47.10
36292;DHT22;22327;51.208;6.418;2022-08-19T13:15:04;29.10;47.70
36292;DHT22;22327;51.208;6.418;2022-08-19T13:17:30;29.10;48.00
36292;DHT22;22327;51.208;6.418;2022-08-19T13:19:56;29.20;47.70
36292;DHT22;22327;51.208;6.418;2022-08-19T13:22:21;29.10;46.70
36292;DHT22;22327;51.208;6.418;2022-08-19T13:24:47;29.10;46.20
36292;DHT22;22327;51.208;6.418;2022-08-19T13:27:14;29.10;46.50
36292;DHT22;22327;51.208;6.418;2022-08-19T13:29:40;29.10;46.60
36292;DHT22;22327;51.208;6.418;2022-08-19T13:32:24;29.20;46.60
36292;DHT22;22327;51.208;6.418;2022-08-19T13:35:09;29.10;46.50
36292;DHT22;22327;51.208;6.418;2022-08-19T13:37:34;29.10;46.60
36292;DHT22;22327;51.208;6.418;2022-08-19T13:40:09;29.10;46.10
36292;DHT22;22327;51.208;6.418;2022-08-19T13:42:40;29.20;46.60
36292;DHT22;22327;51.208;6.418;2022-08-19T13:45:06;29.30;47.10
36292;DHT22;22327;51.208;6.418;2022-08-19T13:47:33;29.30;46.80
36292;DHT22;22327;51.208;6.418;2022-08-19T13:50:03;29.40;47.40
36292;DHT22;22327;51.208;6.418;2022-08-19T13:52:28;29.40;47.90
36292;DHT22;22327;51.208;6.418;2022-08-19T13:54:54;29.60;47.80
36292;DHT22;22327;51.208;6.418;2022-08-19T13:57:20;29.70;47.70
36292;DHT22;22327;51.208;6.418;2022-08-19T13:59:45;29.80;47.20
36292;DHT22;22327;51.208;6.418;2022-08-19T14:02:11;29.80;46.20
36292;DHT22;22327;51.208;6.418;2022-08-19T14:04:37;29.80;45.70
36292;DHT22;22327;51.208;6.418;2022-08-19T14:07:03;29.90;45.80
36292;DHT22;22327;51.208;6.418;2022-08-19T14:09:29;30.00;45.90
36292;DHT22;22327;51.208;6.418;2022-08-19T14:11:55;29.90;46.50
36292;DHT22;22327;51.208;6.418;2022-08-19T14:14:22;30.00;47.20
36292;DHT22;22327;51.208;6.418;2022-08-19T14:16:50;30.00;47.20
36292;DHT22;22327;51.208;6.418;2022-08-19T14:19:17;30.10;47.00
36292;DHT22;22327;51.208;6.418;2022-08-19T14:21:42;30.20;47.10
36292;DHT22;22327;51.208;6.418;2022-08-19T14:24:08;30.20;46.90
36292;DHT22;22327;51.208;6.418;2022-08-19T14:26:34;30.10;47.40
36292;DHT22;22327;51.208;6.418;2022-08-19T14:29:00;30.10;48.00
36292;DHT22;22327;51.208;6.418;2022-08-19T14:31:26;30.00;48.70
36292;DHT22;22327;51.208;6.418;2022-08-19T14:33:52;30.00;48.70
36292;DHT22;22327;51.208;6.418;2022-08-19T14:36:19;30.00;49.40
36292;DHT22;22327;51.208;6.418;2022-08-19T14:38:46;30.10;49.40
36292;DHT22;22327;51.208;6.418;2022-08-19T14:43:46;29.80;50.50
36292;DHT22;22327;51.208;6.418;2022-08-19T14:46:13;29.60;51.20
36292;DHT22;22327;51.208;6.418;2022-08-19T14:48:40;29.40;51.40
36292;DHT22;22327;51.208;6.418;2022-08-19T14:51:06;29.30;51.90
36292;DHT22;22327;51.208;6.418;2022-08-19T14:53:32;29.20;52.40
36292;DHT22;22327;51.208;6.418;2022-08-19T14:55:59;29.10;52.90
36292;DHT22;22327;51.208;6.418;2022-08-19T14:58:24;29.10;53.20
36292;DHT22;22327;51.208;6.418;2022-08-19T15:00:50;29.10;53.50
36292;DHT22;22327;51.208;6.418;2022-08-19T15:03:16;29.10;54.00
36292;DHT22;22327;51.208;6.418;2022-08-19T15:05:41;29.10;54.30
36292;DHT22;22327;51.208;6.418;2022-08-19T15:08:07;29.20;54.50
36292;DHT22;22327;51.208;6.418;2022-08-19T15:10:33;29.20;54.40
36292;DHT22;22327;51.208;6.418;2022-08-19T15:12:58;29.20;54.60
36292;DHT22;22327;51.208;6.418;2022-08-19T15:15:24;29.30;54.40
36292;DHT22;22327;51.208;6.418;2022-08-19T15:17:50;29.40;54.40
36292;DHT22;22327;51.208;6.418;2022-08-19T15:20:19;29.50;54.10
36292;DHT22;22327;51.208;6.418;2022-08-19T15:22:45;29.40;54.10
36292;DHT22;22327;51.208;6.418;2022-08-19T15:25:13;29.40;54.40
36292;DHT22;22327;51.208;6.418;2022-08-19T15:27:38;29.40;54.50
36292;DHT22;22327;51.208;6.418;2022-08-19T15:30:05;29.30;54.70
36292;DHT22;22327;51.208;6.418;2022-08-19T15:32:31;29.30;55.10
36292;DHT22;22327;51.208;6.418;2022-08-19T15:34:57;29.40;55.00
36292;DHT22;22327;51.208;6.418;2022-08-19T15:37:23;29.50;55.00
36292;DHT22;22327;51.208;6.418;2022-08-19T15:39:49;29.60;54.70
36292;DHT22;22327;51.208;6.418;2022-08-19T15:42:15;29.70;54.70
36292;DHT22;22327;51.208;6.418;2022-08-19T15:44:41;29.60;54.60
36292;DHT22;22327;51.208;6.418;2022-08-19T15:47:06;29.70;54.50
36292;DHT22;22327;51.208;6.418;2022-08-19T15:49:32;29.70;54.40
36292;DHT22;22327;51.208;6.418;2022-08-19T15:51:58;29.70;54.60